Time;durP1;ratioP1;P1;durP2;ratioP2;P2;SDS_P1;SDS_P2;PMS_P1;PMS_P2;Temp;Humidity;BMP_temperature;BMP_pressure;BME280_temperature;BME280_humidity;BME280_pressure;Samples;Min_cycle;Max_cycle;Signal;HPM_P1;HPM_P2
2022/06/28 00:00:21;;;;;;;11.00;7.60;;;19.20;99.90;;;;;;5094906;28;20200;-63
2022/06/28 00:02:46;;;;;;;11.25;7.93;;;19.20;99.90;;;;;;5094865;28;20185;-62
2022/06/28 00:05:12;;;;;;;13.07;7.68;;;19.30;99.90;;;;;;5094437;28;20232;-62
2022/06/28 00:07:39;;;;;;;11.98;8.32;;;19.30;99.90;;;;;;5094675;28;20260;-62
2022/06/28 00:10:06;;;;;;;13.93;7.72;;;19.20;99.90;;;;;;5094484;28;20612;-62
2022/06/28 00:12:32;;;;;;;11.95;7.22;;;19.20;99.90;;;;;;5094723;28;20244;-63
2022/06/28 00:17:42;;;;;;;10.25;7.32;;;19.20;99.90;;;;;;5081904;28;20196;-63
2022/06/28 00:20:09;;;;;;;9.88;7.05;;;19.20;99.90;;;;;;5074050;28;20657;-63
2022/06/28 00:22:35;;;;;;;13.93;7.82;;;19.20;99.90;;;;;;5074110;28;20185;-63
2022/06/28 00:25:00;;;;;;;15.45;7.82;;;19.20;99.90;;;;;;5074140;28;20182;-63
2022/06/28 00:27:26;;;;;;;10.82;7.03;;;19.20;99.90;;;;;;5074412;28;20239;-63
2022/06/28 00:29:52;;;;;;;16.23;7.70;;;19.20;99.90;;;;;;5073996;28;20221;-63
2022/06/28 00:32:17;;;;;;;10.50;7.35;;;19.20;99.90;;;;;;5073860;28;20308;-63
2022/06/28 00:34:43;;;;;;;12.70;7.35;;;19.20;99.90;;;;;;5073626;28;20630;-62
2022/06/28 00:37:09;;;;;;;8.07;6.45;;;19.20;99.90;;;;;;5074026;28;20182;-63
2022/06/28 00:39:34;;;;;;;10.73;6.53;;;19.20;99.90;;;;;;5073670;28;20649;-63
2022/06/28 00:42:00;;;;;;;9.88;7.15;;;19.20;99.90;;;;;;5073977;28;20273;-62
2022/06/28 00:44:27;;;;;;;10.20;7.43;;;19.30;99.90;;;;;;5087061;28;20583;-62
2022/06/28 00:46:53;;;;;;;9.13;7.15;;;19.40;99.90;;;;;;5093850;28;20211;-62
2022/06/28 00:49:20;;;;;;;11.23;6.40;;;19.40;99.90;;;;;;5093991;28;20181;-62
2022/06/28 00:51:45;;;;;;;10.38;6.53;;;19.40;99.90;;;;;;5094086;28;20214;-61
2022/06/28 00:54:12;;;;;;;9.75;6.20;;;19.40;99.90;;;;;;5093882;28;20220;-62
2022/06/28 00:56:38;;;;;;;11.00;6.63;;;19.40;99.90;;;;;;5093642;28;20184;-61
2022/06/28 00:59:04;;;;;;;10.43;6.57;;;19.40;99.90;;;;;;5093778;28;20177;-61
2022/06/28 01:01:30;;;;;;;11.15;6.63;;;19.40;99.90;;;;;;5093603;28;20655;-62
2022/06/28 01:03:56;;;;;;;7.70;6.53;;;19.50;99.90;;;;;;5092995;28;20224;-62
2022/06/28 01:06:22;;;;;;;16.05;6.63;;;19.40;99.90;;;;;;5093329;28;20173;-62
2022/06/28 01:08:48;;;;;;;10.30;6.90;;;19.40;99.90;;;;;;5093612;28;20197;-62
2022/06/28 01:11:21;;;;;;;10.88;6.03;;;19.40;99.90;;;;;;5093498;28;20648;-61
2022/06/28 01:13:52;;;;;;;11.48;6.50;;;19.40;99.90;;;;;;5093293;28;20217;-62
2022/06/28 01:16:20;;;;;;;9.65;6.80;;;19.40;99.90;;;;;;5092645;28;20185;-62
2022/06/28 01:18:46;;;;;;;10.15;6.65;;;19.30;99.90;;;;;;5072940;28;20533;-62
2022/06/28 01:21:14;;;;;;;11.93;6.57;;;19.40;99.90;;;;;;5072913;28;20289;-61
2022/06/28 01:23:45;;;;;;;12.85;6.65;;;19.30;99.90;;;;;;5055032;28;20199;-62
2022/06/28 01:26:19;;;;;;;14.73;7.07;;;19.20;99.90;;;;;;5073055;28;20295;-62
2022/06/28 01:28:46;;;;;;;9.20;7.00;;;19.20;99.90;;;;;;5072714;28;20178;-62
2022/06/28 01:31:12;;;;;;;10.25;6.72;;;19.20;99.90;;;;;;5073089;28;20178;-64
2022/06/28 01:33:39;;;;;;;8.20;6.65;;;19.20;99.90;;;;;;5072993;28;20225;-63
2022/06/28 01:36:06;;;;;;;9.57;6.07;;;19.10;99.90;;;;;;5072641;28;20264;-63
2022/06/28 01:38:33;;;;;;;12.55;6.68;;;19.10;99.90;;;;;;5072815;28;20228;-62
2022/06/28 01:40:59;;;;;;;11.57;6.70;;;19.10;99.90;;;;;;5072534;28;20707;-62
2022/06/28 01:43:26;;;;;;;17.23;7.60;;;19.10;99.90;;;;;;5077929;28;20272;-63
2022/06/28 01:45:53;;;;;;;10.23;7.22;;;19.10;99.90;;;;;;5092552;28;20181;-62
2022/06/28 01:48:20;;;;;;;11.50;7.07;;;19.10;99.90;;;;;;5092635;28;20173;-62
2022/06/28 01:50:47;;;;;;;13.02;7.05;;;19.10;99.90;;;;;;5092736;28;20234;-63
2022/06/28 01:53:13;;;;;;;12.07;6.82;;;19.10;99.90;;;;;;5074500;28;20303;-63
2022/06/28 01:55:40;;;;;;;14.60;6.88;;;19.10;99.90;;;;;;5091591;28;20652;-62
2022/06/28 01:58:06;;;;;;;11.25;6.70;;;19.00;99.90;;;;;;5092420;28;20660;-62
2022/06/28 02:00:32;;;;;;;9.63;6.82;;;19.00;99.90;;;;;;5092581;28;20267;-62
2022/06/28 02:02:58;;;;;;;10.48;6.75;;;19.00;99.90;;;;;;5092069;28;20268;-62
2022/06/28 02:05:24;;;;;;;9.45;6.25;;;19.00;99.90;;;;;;5092394;28;20233;-62
2022/06/28 02:07:51;;;;;;;11.13;6.75;;;19.00;99.90;;;;;;5092015;28;20184;-62
2022/06/28 02:10:18;;;;;;;12.57;7.72;;;19.10;99.90;;;;;;5084100;28;20223;-62
2022/06/28 02:12:45;;;;;;;9.43;6.38;;;19.10;99.90;;;;;;5073792;28;20217;-63
2022/06/28 02:15:11;;;;;;;11.00;6.10;;;19.10;99.90;;;;;;5071842;28;20280;-62
2022/06/28 02:17:37;;;;;;;12.13;5.95;;;19.10;99.90;;;;;;5083448;28;20661;-62
2022/06/28 02:20:04;;;;;;;11.50;6.28;;;19.10;99.90;;;;;;5092129;28;20277;-62
2022/06/28 02:22:29;;;;;;;8.18;5.80;;;19.10;99.90;;;;;;5092037;28;20197;-62
2022/06/28 02:24:55;;;;;;;10.07;6.90;;;19.10;99.90;;;;;;5091853;28;20230;-62
2022/06/28 02:27:21;;;;;;;16.40;6.20;;;19.20;99.90;;;;;;5091861;28;20192;-62
2022/06/28 02:29:47;;;;;;;8.68;6.05;;;19.20;99.90;;;;;;5091673;28;20172;-62
2022/06/28 02:32:13;;;;;;;19.00;8.23;;;19.10;99.90;;;;;;5091779;28;20661;-62
2022/06/28 02:40:27;;;;;;;7.85;5.75;;;19.20;99.90;;;;;;5091984;28;20306;-62
2022/06/28 02:42:53;;;;;;;11.25;6.22;;;19.30;99.90;;;;;;5091147;28;20208;-62
2022/06/28 02:45:20;;;;;;;11.02;7.30;;;19.30;99.90;;;;;;5071812;28;20182;-62
2022/06/28 02:47:47;;;;;;;11.55;6.28;;;19.30;99.90;;;;;;5053610;28;20699;-63
2022/06/28 02:50:13;;;;;;;9.52;6.40;;;19.30;99.90;;;;;;5071872;28;20186;-62
2022/06/28 02:52:38;;;;;;;8.27;6.32;;;19.40;99.90;;;;;;5071520;28;20661;-62
2022/06/28 02:55:06;;;;;;;10.45;6.35;;;19.40;99.90;;;;;;5071430;28;20177;-62
2022/06/28 02:57:33;;;;;;;12.80;6.25;;;19.40;99.90;;;;;;5071607;28;20190;-61
2022/06/28 02:59:59;;;;;;;8.48;6.13;;;19.40;99.90;;;;;;5071363;28;20247;-61
2022/06/28 03:02:24;;;;;;;7.65;5.50;;;19.40;99.90;;;;;;5071229;28;20653;-62
2022/06/28 03:04:50;;;;;;;8.43;5.95;;;19.40;99.90;;;;;;5071176;28;20233;-62
2022/06/28 03:07:16;;;;;;;13.40;6.85;;;19.40;99.90;;;;;;5073240;28;20193;-62
2022/06/28 03:09:42;;;;;;;9.75;5.90;;;19.40;99.90;;;;;;5075544;28;20637;-62
2022/06/28 03:12:08;;;;;;;12.40;6.75;;;19.40;99.90;;;;;;5074982;28;20229;-62
2022/06/28 03:14:33;;;;;;;7.78;6.03;;;19.40;99.90;;;;;;5075242;28;20181;-62
2022/06/28 03:17:00;;;;;;;9.10;6.40;;;19.40;99.90;;;;;;5081224;28;20185;-62
2022/06/28 03:19:25;;;;;;;12.38;7.00;;;19.40;99.90;;;;;;5095357;28;20196;-62
2022/06/28 03:21:51;;;;;;;14.73;7.13;;;19.50;99.90;;;;;;5094913;28;20216;-62
2022/06/28 03:24:17;;;;;;;12.38;6.43;;;19.50;99.90;;;;;;5095299;28;20177;-62
2022/06/28 03:26:43;;;;;;;13.77;7.75;;;19.50;99.90;;;;;;5076932;28;20668;-62
2022/06/28 03:29:09;;;;;;;11.65;6.97;;;19.50;99.90;;;;;;5094891;28;20553;-62
2022/06/28 03:31:35;;;;;;;11.05;6.97;;;19.60;99.90;;;;;;5094983;28;20272;-62
2022/06/28 03:34:01;;;;;;;13.00;6.80;;;19.60;99.90;;;;;;5094509;28;20284;-63
2022/06/28 03:36:28;;;;;;;11.60;6.63;;;19.50;99.90;;;;;;5094512;28;20231;-63
2022/06/28 03:38:53;;;;;;;9.70;6.82;;;19.60;99.90;;;;;;5094616;28;20242;-64
2022/06/28 03:41:22;;;;;;;12.95;7.80;;;19.60;99.90;;;;;;5094624;28;20554;-63
2022/06/28 03:43:49;;;;;;;10.45;6.78;;;19.60;99.90;;;;;;5086166;28;20208;-63
2022/06/28 03:46:15;;;;;;;12.32;7.15;;;19.70;99.90;;;;;;5074310;28;20273;-64
2022/06/28 03:48:41;;;;;;;9.73;7.55;;;19.70;99.90;;;;;;5073956;28;20635;-62
2022/06/28 03:51:06;;;;;;;9.30;6.63;;;19.80;99.90;;;;;;5073759;28;20170;-64
2022/06/28 03:53:32;;;;;;;10.55;7.45;;;19.80;99.90;;;;;;5073686;28;20516;-62
2022/06/28 03:55:58;;;;;;;10.45;7.03;;;19.90;99.90;;;;;;5055631;28;20272;-62
2022/06/28 03:58:24;;;;;;;12.30;7.05;;;20.00;99.90;;;;;;5073886;28;20222;-63
2022/06/28 04:00:49;;;;;;;11.07;7.07;;;20.10;99.90;;;;;;5055931;28;20190;-62
2022/06/28 04:03:15;;;;;;;10.27;7.13;;;20.10;99.90;;;;;;5073694;28;20334;-63
2022/06/28 04:05:41;;;;;;;11.23;6.85;;;20.30;99.90;;;;;;5073984;28;20225;-63
2022/06/28 04:08:08;;;;;;;12.95;7.10;;;20.40;99.90;;;;;;5073549;28;20186;-62
2022/06/28 04:10:34;;;;;;;16.00;7.72;;;20.40;99.90;;;;;;5074112;28;20264;-63
2022/06/28 04:13:00;;;;;;;17.15;7.18;;;20.50;99.90;;;;;;5073433;28;20274;-62
2022/06/28 04:15:26;;;;;;;13.95;6.80;;;20.60;99.90;;;;;;5074041;28;20181;-62
2022/06/28 04:17:52;;;;;;;10.88;6.78;;;20.70;99.90;;;;;;5086250;28;20284;-64
2022/06/28 04:20:18;;;;;;;14.40;7.50;;;20.70;99.90;;;;;;5075385;28;20291;-64
2022/06/28 04:22:43;;;;;;;12.82;7.18;;;20.80;99.90;;;;;;5093630;28;20193;-62
2022/06/28 04:25:09;;;;;;;9.80;7.07;;;20.80;99.90;;;;;;5093738;28;20656;-62
2022/06/28 04:27:35;;;;;;;8.48;6.22;;;20.80;99.90;;;;;;5093672;28;20194;-62
2022/06/28 04:30:03;;;;;;;9.25;6.75;;;20.80;99.90;;;;;;5075239;28;20220;-62
2022/06/28 04:32:29;;;;;;;9.93;6.78;;;20.90;99.90;;;;;;5075231;28;20217;-63
2022/06/28 04:34:55;;;;;;;13.23;6.95;;;21.00;99.90;;;;;;5092815;28;20276;-63
2022/06/28 04:37:21;;;;;;;14.93;7.95;;;21.00;99.90;;;;;;5093499;28;20188;-62
2022/06/28 04:39:47;;;;;;;14.90;7.80;;;21.10;99.90;;;;;;5093325;28;20256;-63
2022/06/28 04:42:13;;;;;;;12.85;8.13;;;21.20;99.90;;;;;;5074550;28;20191;-63
2022/06/28 04:44:38;;;;;;;12.15;7.53;;;21.30;99.90;;;;;;5077709;28;20526;-63
2022/06/28 04:47:05;;;;;;;13.13;7.18;;;21.10;99.90;;;;;;5054483;28;20255;-65
2022/06/28 04:49:30;;;;;;;10.23;6.97;;;21.10;99.90;;;;;;5083799;28;20287;-63
2022/06/28 04:51:56;;;;;;;11.75;8.35;;;21.20;99.90;;;;;;5092587;28;20184;-62
2022/06/28 04:54:22;;;;;;;18.17;8.30;;;21.30;99.90;;;;;;5092895;28;20272;-64
2022/06/28 04:56:48;;;;;;;10.45;6.30;;;21.50;99.90;;;;;;5093178;28;20177;-60
2022/06/28 04:59:14;;;;;;;12.93;7.50;;;21.50;99.90;;;;;;5068788;28;20178;-65
2022/06/28 05:01:39;;;;;;;9.95;6.30;;;21.50;99.90;;;;;;5082186;28;20185;-64
2022/06/28 05:04:05;;;;;;;13.02;7.80;;;21.70;99.90;;;;;;5082592;28;20229;-66
2022/06/28 05:06:31;;;;;;;11.18;6.97;;;21.80;99.90;;;;;;5072574;28;20644;-66
2022/06/28 05:08:56;;;;;;;8.50;6.55;;;21.70;99.90;;;;;;5077690;28;20205;-63
2022/06/28 05:11:22;;;;;;;12.13;6.97;;;21.90;99.90;;;;;;5078793;28;20196;-66
2022/06/28 05:13:49;;;;;;;9.75;6.28;;;21.90;99.90;;;;;;5081322;28;20347;-62
2022/06/28 05:16:14;;;;;;;19.90;7.00;;;22.10;99.90;;;;;;5074819;28;20616;-66
2022/06/28 05:18:41;;;;;;;13.75;6.40;;;22.10;99.90;;;;;;5079918;28;20177;-78
2022/06/28 05:21:07;;;;;;;22.70;7.95;;;22.30;99.90;;;;;;5052237;28;20259;-74
2022/06/28 05:23:33;;;;;;;20.95;8.20;;;22.40;99.90;;;;;;5070518;28;20832;-65
2022/06/28 05:25:59;;;;;;;12.63;6.80;;;22.60;99.90;;;;;;5068952;28;20651;-64
2022/06/28 05:28:25;;;;;;;20.13;7.15;;;22.70;99.90;;;;;;5090183;28;20181;-61
2022/06/28 05:30:51;;;;;;;14.85;7.50;;;23.00;99.90;;;;;;5077442;28;20670;-60
2022/06/28 05:33:16;;;;;;;19.15;7.53;;;23.20;99.90;;;;;;5080580;28;20229;-63
2022/06/28 05:35:43;;;;;;;14.50;6.50;;;22.90;99.90;;;;;;5080554;28;20220;-60
2022/06/28 05:38:09;;;;;;;12.95;6.13;;;23.10;99.90;;;;;;5080832;28;20561;-61
2022/06/28 05:40:35;;;;;;;11.73;5.80;;;23.20;99.90;;;;;;5082180;28;20193;-66
2022/06/28 05:43:00;;;;;;;19.38;6.68;;;23.10;99.90;;;;;;5062426;28;20559;-60
2022/06/28 05:45:26;;;;;;;12.52;6.43;;;23.10;99.90;;;;;;5080417;28;20286;-61
2022/06/28 05:47:52;;;;;;;17.83;6.88;;;23.00;99.90;;;;;;5045000;28;20607;-60
2022/06/28 05:50:19;;;;;;;12.65;6.57;;;23.00;99.90;;;;;;5077216;28;20276;-61
2022/06/28 05:52:46;;;;;;;11.88;7.20;;;23.00;99.90;;;;;;5077928;28;20209;-63
2022/06/28 05:55:12;;;;;;;13.80;6.72;;;23.00;99.90;;;;;;5079267;28;20638;-62
2022/06/28 05:57:38;;;;;;;22.80;8.63;;;23.00;99.90;;;;;;5079900;28;20277;-62
2022/06/28 06:00:05;;;;;;;13.73;7.25;;;23.10;99.90;;;;;;5078755;28;20584;-64
2022/06/28 06:02:31;;;;;;;11.90;6.95;;;23.30;99.90;;;;;;5079551;28;20185;-61
2022/06/28 06:04:59;;;;;;;11.90;8.50;;;23.30;99.90;;;;;;5078283;28;20643;-63
2022/06/28 06:07:25;;;;;;;9.35;7.35;;;23.40;99.90;;;;;;5080457;28;20202;-63
2022/06/28 06:09:51;;;;;;;15.85;7.63;;;23.50;99.90;;;;;;5080141;28;20287;-62
2022/06/28 06:12:17;;;;;;;15.88;8.25;;;23.40;99.90;;;;;;5060753;28;20260;-60
2022/06/28 06:14:43;;;;;;;12.30;7.40;;;23.60;99.90;;;;;;5061883;28;20192;-59
2022/06/28 06:17:09;;;;;;;15.85;7.80;;;23.80;99.90;;;;;;5079506;28;20603;-66
2022/06/28 06:19:35;;;;;;;18.40;8.93;;;24.00;99.90;;;;;;5078865;28;20219;-64
2022/06/28 06:22:00;;;;;;;16.30;7.97;;;24.20;99.90;;;;;;5060991;28;20261;-64
2022/06/28 06:24:26;;;;;;;21.70;8.05;;;24.40;99.90;;;;;;5080354;28;20204;-64
2022/06/28 06:26:52;;;;;;;17.42;7.47;;;24.60;99.90;;;;;;5080325;28;20219;-62
2022/06/28 06:29:18;;;;;;;33.75;9.90;;;24.60;99.90;;;;;;5060467;28;20173;-62
2022/06/28 06:31:43;;;;;;;23.10;8.48;;;24.60;99.90;;;;;;5079155;28;20190;-61
2022/06/28 06:34:09;;;;;;;12.57;5.85;;;24.70;99.90;;;;;;5078438;28;20237;-61
2022/06/28 06:36:35;;;;;;;15.15;6.75;;;25.00;99.90;;;;;;5077910;28;20268;-62
2022/06/28 06:39:01;;;;;;;11.30;5.88;;;25.10;99.90;;;;;;5077548;28;20672;-61
2022/06/28 06:41:27;;;;;;;18.25;7.05;;;25.30;99.90;;;;;;5076519;28;20200;-61
2022/06/28 06:43:53;;;;;;;12.23;6.63;;;25.20;99.90;;;;;;5076542;28;20248;-61
2022/06/28 06:46:19;;;;;;;10.73;6.25;;;25.10;99.90;;;;;;5077598;28;20225;-61
2022/06/28 06:48:45;;;;;;;22.27;8.38;;;24.90;99.90;;;;;;5078252;28;20220;-63
2022/06/28 06:51:11;;;;;;;15.50;6.53;;;25.00;99.90;;;;;;5077751;28;20231;-60
2022/06/28 06:53:37;;;;;;;19.20;7.75;;;25.10;99.90;;;;;;5079027;28;20548;-62
2022/06/28 06:56:03;;;;;;;11.85;6.75;;;25.20;99.90;;;;;;5079264;28;20209;-61
2022/06/28 06:58:28;;;;;;;22.92;7.50;;;25.50;99.90;;;;;;5078727;28;20215;-63
2022/06/28 07:00:54;;;;;;;26.25;9.82;;;25.70;99.90;;;;;;5079177;28;20195;-61
2022/06/28 07:03:20;;;;;;;18.85;6.45;;;26.00;99.90;;;;;;5079121;28;20208;-63
2022/06/28 07:05:46;;;;;;;28.38;8.43;;;26.30;99.90;;;;;;5079056;28;20233;-62
2022/06/28 07:08:12;;;;;;;15.38;7.97;;;26.40;99.90;;;;;;5078963;28;20187;-60
2022/06/28 07:10:37;;;;;;;9.80;7.03;;;26.30;99.90;;;;;;5078594;28;20185;-62
2022/06/28 07:13:03;;;;;;;13.82;7.57;;;26.30;99.90;;;;;;5078680;28;20221;-62
2022/06/28 07:15:29;;;;;;;12.75;7.88;;;26.10;99.90;;;;;;5078786;28;20268;-61
2022/06/28 07:17:55;;;;;;;14.48;7.70;;;25.80;99.90;;;;;;5079505;28;20189;-61
2022/06/28 07:20:21;;;;;;;14.70;7.78;;;26.10;99.90;;;;;;5078752;28;20628;-62
2022/06/28 07:22:46;;;;;;;14.23;7.63;;;26.10;99.90;;;;;;5078889;28;20228;-62
2022/06/28 07:25:13;;;;;;;13.77;8.00;;;26.60;99.90;;;;;;5043892;28;20509;-61
2022/06/28 07:27:39;;;;;;;12.32;8.63;;;26.60;99.90;;;;;;5079168;28;20625;-62
2022/06/28 07:30:05;;;;;;;16.70;9.05;;;26.80;99.90;;;;;;5059846;28;20224;-61
2022/06/28 07:32:32;;;;;;;20.20;8.75;;;26.90;99.90;;;;;;5061074;28;20256;-63
2022/06/28 07:34:57;;;;;;;21.17;8.15;;;27.40;99.90;;;;;;5060441;28;20258;-62
2022/06/28 07:37:23;;;;;;;20.17;8.52;;;27.70;99.40;;;;;;5078709;28;20194;-61
2022/06/28 07:39:49;;;;;;;19.63;8.70;;;27.80;99.20;;;;;;5079351;28;20234;-62
2022/06/28 07:42:15;;;;;;;17.50;8.25;;;27.90;98.70;;;;;;5078281;28;20189;-61
2022/06/28 07:44:40;;;;;;;20.55;8.55;;;27.90;98.50;;;;;;5078598;28;20199;-62
2022/06/28 07:47:06;;;;;;;22.42;9.52;;;28.40;97.60;;;;;;5078753;28;20193;-63
2022/06/28 07:52:35;;;;;;;11.32;6.88;;;28.50;96.80;;;;;;5078699;28;20227;-61
2022/06/28 07:55:02;;;;;;;14.45;7.28;;;28.60;96.10;;;;;;5065551;28;20277;-63
2022/06/28 07:57:27;;;;;;;15.63;7.60;;;28.60;96.00;;;;;;5082502;28;20194;-62
2022/06/28 07:59:54;;;;;;;13.40;7.13;;;28.70;94.80;;;;;;5081161;28;20196;-61
2022/06/28 08:02:20;;;;;;;17.98;6.75;;;28.60;94.80;;;;;;5081907;28;21150;-61
2022/06/28 08:04:46;;;;;;;17.80;6.95;;;28.50;94.30;;;;;;5081960;28;20243;-62
2022/06/28 08:07:12;;;;;;;8.75;6.72;;;28.50;94.80;;;;;;5081640;28;20266;-62
2022/06/28 08:09:38;;;;;;;10.98;6.97;;;28.20;94.00;;;;;;5081810;28;20304;-62
2022/06/28 08:12:05;;;;;;;10.48;4.60;;;28.20;93.90;;;;;;5062912;28;20291;-64
2022/06/28 08:14:31;;;;;;;14.25;4.97;;;27.90;90.60;;;;;;5081536;28;20683;-62
2022/06/28 08:16:57;;;;;;;14.82;5.10;;;27.70;90.60;;;;;;5081724;28;20182;-60
2022/06/28 08:19:23;;;;;;;12.10;5.03;;;27.60;90.90;;;;;;5082125;28;20181;-61
2022/06/28 08:21:49;;;;;;;11.95;5.90;;;27.60;92.10;;;;;;5063470;28;20220;-61
2022/06/28 08:24:16;;;;;;;14.40;6.38;;;27.70;92.50;;;;;;5081643;28;20218;-62
2022/06/28 08:26:42;;;;;;;11.82;6.00;;;27.80;92.60;;;;;;5081619;28;20197;-62
2022/06/28 08:29:16;;;;;;;11.18;5.65;;;27.90;92.20;;;;;;5080828;28;20644;-62
2022/06/28 08:31:43;;;;;;;11.05;6.22;;;27.90;92.40;;;;;;5081340;28;20249;-61
2022/06/28 08:34:10;;;;;;;9.80;5.43;;;28.10;92.10;;;;;;5080002;28;20545;-61
2022/06/28 08:36:36;;;;;;;16.42;6.50;;;28.20;92.10;;;;;;5081636;28;20232;-63
2022/06/28 08:39:03;;;;;;;12.52;6.25;;;28.00;92.30;;;;;;5081029;28;20214;-65
2022/06/28 08:41:32;;;;;;;11.18;6.45;;;27.90;92.10;;;;;;5080988;28;20258;-61
2022/06/28 08:43:58;;;;;;;21.15;7.00;;;27.90;92.10;;;;;;5081203;28;20257;-62
2022/06/28 08:46:24;;;;;;;21.33;6.38;;;27.90;92.00;;;;;;5081580;28;20637;-61
2022/06/28 08:49:06;;;;;;;23.48;7.45;;;28.10;92.10;;;;;;5081082;28;20218;-61
2022/06/28 08:51:32;;;;;;;17.38;7.07;;;28.20;91.80;;;;;;5081862;28;20203;-60
2022/06/28 08:54:03;;;;;;;12.98;6.28;;;28.20;91.60;;;;;;5080575;28;20216;-63
2022/06/28 08:56:29;;;;;;;14.23;6.30;;;28.10;91.50;;;;;;5081196;28;20197;-63
2022/06/28 08:58:59;;;;;;;8.55;5.28;;;27.90;91.70;;;;;;5080803;28;20269;-61
2022/06/28 09:01:25;;;;;;;9.82;5.05;;;27.90;90.20;;;;;;5080005;28;20189;-61
2022/06/28 09:03:53;;;;;;;10.13;5.25;;;27.90;89.80;;;;;;5080200;28;20189;-63
2022/06/28 09:06:19;;;;;;;12.63;5.75;;;28.00;90.00;;;;;;5062020;28;20192;-61
2022/06/28 09:08:45;;;;;;;12.07;5.70;;;28.00;89.90;;;;;;5080164;28;20602;-62
2022/06/28 09:11:11;;;;;;;11.95;5.43;;;28.20;89.10;;;;;;5080623;28;20190;-61
2022/06/28 09:13:40;;;;;;;14.02;6.40;;;28.40;86.60;;;;;;5080781;28;20649;-61
2022/06/28 09:16:05;;;;;;;6.05;4.45;;;28.60;87.80;;;;;;5079962;28;20196;-62
2022/06/28 09:18:34;;;;;;;10.88;5.60;;;28.80;85.40;;;;;;5080883;28;20700;-64
2022/06/28 09:21:00;;;;;;;13.68;5.20;;;28.70;86.00;;;;;;5061935;28;20227;-60
2022/06/28 09:23:32;;;;;;;16.80;6.10;;;28.80;85.10;;;;;;5080333;28;20648;-64
2022/06/28 09:26:11;;;;;;;12.93;5.53;;;28.70;85.90;;;;;;5080644;28;20283;-62
2022/06/28 09:28:49;;;;;;;8.88;4.95;;;28.80;84.20;;;;;;5061335;28;20249;-60
2022/06/28 09:31:24;;;;;;;8.27;5.32;;;28.70;83.60;;;;;;5080517;28;20635;-62
2022/06/28 09:34:09;;;;;;;11.77;5.20;;;28.60;84.80;;;;;;5080569;28;20220;-61
2022/06/28 09:36:55;;;;;;;23.13;6.40;;;28.80;84.40;;;;;;5080268;28;20181;-65
2022/06/28 09:39:26;;;;;;;7.50;4.80;;;28.70;84.30;;;;;;5079956;28;20208;-61
2022/06/28 09:41:53;;;;;;;10.80;5.28;;;28.90;85.10;;;;;;5061718;28;20278;-63
2022/06/28 09:44:26;;;;;;;16.48;5.93;;;29.30;84.10;;;;;;5078985;28;20217;-62
2022/06/28 09:46:54;;;;;;;11.45;5.25;;;29.70;82.30;;;;;;5079956;28;20556;-62
2022/06/28 09:49:27;;;;;;;10.63;6.07;;;29.90;81.10;;;;;;5061374;28;20295;-62
2022/06/28 09:51:55;;;;;;;10.52;5.60;;;29.90;80.10;;;;;;5080401;28;20621;-60
2022/06/28 09:54:25;;;;;;;11.13;5.13;;;30.10;81.00;;;;;;5079439;28;20258;-61
2022/06/28 09:56:54;;;;;;;13.57;4.70;;;30.30;79.10;;;;;;5078919;28;20246;-63
2022/06/28 09:59:21;;;;;;;9.18;5.10;;;30.40;76.70;;;;;;5078319;28;20264;-62
2022/06/28 10:01:48;;;;;;;9.88;4.68;;;30.40;76.40;;;;;;5079218;28;20185;-62
2022/06/28 10:04:14;;;;;;;15.32;7.38;;;30.70;74.10;;;;;;5078640;28;20241;-61
2022/06/28 10:06:41;;;;;;;10.88;3.90;;;31.10;69.90;;;;;;5078987;28;20237;-61
2022/06/28 10:09:07;;;;;;;17.15;7.35;;;31.30;68.30;;;;;;5077864;28;20234;-61
2022/06/28 10:17:22;;;;;;;6.75;3.67;;;32.00;65.10;;;;;;5078318;28;20201;-61
2022/06/28 10:19:50;;;;;;;12.85;4.90;;;32.00;63.00;;;;;;5079295;28;20667;-62
2022/06/28 10:22:16;;;;;;;10.82;5.05;;;32.20;63.30;;;;;;5079742;28;20190;-61
2022/06/28 10:24:57;;;;;;;8.25;4.03;;;32.20;63.80;;;;;;5079470;28;20185;-61
2022/06/28 10:27:24;;;;;;;7.90;4.15;;;31.40;63.70;;;;;;5078689;28;20196;-64
2022/06/28 10:30:07;;;;;;;11.93;5.05;;;31.40;64.40;;;;;;5078560;28;20400;-61
2022/06/28 10:32:45;;;;;;;5.03;3.80;;;31.30;63.90;;;;;;5079075;28;20244;-62
2022/06/28 10:35:31;;;;;;;8.82;4.53;;;31.40;62.40;;;;;;5079112;28;20185;-62
2022/06/28 10:38:08;;;;;;;9.45;4.65;;;31.50;62.20;;;;;;5079047;28;20269;-61
2022/06/28 10:40:47;;;;;;;6.95;4.30;;;31.60;63.40;;;;;;5078985;28;20180;-61
2022/06/28 10:43:14;;;;;;;6.07;4.28;;;31.20;63.50;;;;;;5078529;28;20211;-61
2022/06/28 10:46:05;;;;;;;11.02;4.60;;;30.60;64.60;;;;;;5079519;28;20703;-63
2022/06/28 10:48:51;;;;;;;8.27;4.75;;;30.40;64.70;;;;;;5079256;28;20196;-61
2022/06/28 10:51:18;;;;;;;11.05;5.03;;;30.40;63.10;;;;;;5079217;28;20181;-61
2022/06/28 10:54:08;;;;;;;10.90;3.78;;;30.50;62.10;;;;;;5079177;28;20247;-61
2022/06/28 10:56:46;;;;;;;6.03;4.30;;;30.80;61.80;;;;;;5079444;28;20269;-61
2022/06/28 10:59:16;;;;;;;9.93;4.18;;;31.10;61.20;;;;;;5078442;28;20260;-62
2022/06/28 11:01:45;;;;;;;8.15;4.25;;;31.40;61.50;;;;;;5079287;28;20188;-61
2022/06/28 11:04:19;;;;;;;12.35;5.25;;;31.70;61.60;;;;;;5078009;28;20332;-63
2022/06/28 11:06:56;;;;;;;13.48;4.68;;;31.60;62.30;;;;;;5079537;28;20286;-60
2022/06/28 11:09:28;;;;;;;13.05;4.60;;;31.70;61.00;;;;;;5078567;28;20207;-62
2022/06/28 11:12:15;;;;;;;13.00;4.53;;;32.00;60.20;;;;;;5078906;28;20196;-61
2022/06/28 11:14:53;;;;;;;6.90;4.18;;;32.10;59.90;;;;;;5078308;28;20553;-62
2022/06/28 11:17:29;;;;;;;7.30;4.30;;;31.90;61.10;;;;;;5079141;28;20185;-60
2022/06/28 11:19:58;;;;;;;7.38;4.78;;;31.60;60.60;;;;;;5079002;28;20511;-66
2022/06/28 11:22:27;;;;;;;11.48;4.03;;;31.10;61.20;;;;;;5078783;28;20185;-63
2022/06/28 11:24:54;;;;;;;14.10;5.38;;;31.30;61.90;;;;;;5078888;28;20665;-61
2022/06/28 11:27:21;;;;;;;5.85;3.58;;;32.10;60.70;;;;;;5078133;28;20202;-62
2022/06/28 11:29:49;;;;;;;6.53;3.95;;;33.40;56.80;;;;;;5082692;28;20190;-60
2022/06/28 11:32:17;;;;;;;8.65;4.35;;;34.80;54.10;;;;;;5064605;28;20185;-60
2022/06/28 11:34:42;;;;;;;12.13;4.05;;;37.30;51.50;;;;;;5082925;28;20684;-62
2022/06/28 11:37:08;;;;;;;6.10;4.07;;;38.90;48.50;;;;;;5082582;28;20299;-66
2022/06/28 11:39:34;;;;;;;9.27;4.47;;;39.50;45.20;;;;;;5083070;28;20275;-64
2022/06/28 11:42:00;;;;;;;8.40;4.68;;;39.70;45.10;;;;;;5082088;28;20189;-64
2022/06/28 11:44:26;;;;;;;11.98;5.28;;;40.80;43.90;;;;;;5082759;28;20185;-60
2022/06/28 11:46:53;;;;;;;16.25;4.53;;;42.10;42.30;;;;;;5083172;28;20184;-63
2022/06/28 11:49:33;;;;;;;7.38;4.25;;;41.50;40.80;;;;;;5082026;28;20291;-60
2022/06/28 11:52:00;;;;;;;4.47;3.75;;;41.00;40.40;;;;;;5083505;28;20257;-62
2022/06/28 11:54:26;;;;;;;10.73;4.53;;;39.60;41.00;;;;;;5082930;28;20383;-61
2022/06/28 11:56:53;;;;;;;15.35;4.30;;;39.60;41.80;;;;;;5082070;28;20272;-60
2022/06/28 11:59:19;;;;;;;16.58;4.30;;;39.40;41.40;;;;;;5082329;28;20580;-61
2022/06/28 12:01:45;;;;;;;5.70;3.67;;;39.10;41.50;;;;;;5083062;28;20232;-62
2022/06/28 12:04:21;;;;;;;5.97;4.00;;;40.10;40.80;;;;;;5081455;28;20301;-63
2022/06/28 12:06:47;;;;;;;10.40;4.10;;;41.10;39.10;;;;;;5082664;28;20188;-62
2022/06/28 12:09:16;;;;;;;5.40;4.00;;;41.30;37.80;;;;;;5082179;28;20211;-61
2022/06/28 12:11:50;;;;;;;6.28;2.28;;;41.60;37.60;;;;;;5081475;28;20315;-62
2022/06/28 12:14:17;;;;;;;1.85;1.75;;;41.60;37.30;;;;;;5082408;28;20667;-62
2022/06/28 12:16:57;;;;;;;0.20;0.20;;;42.20;35.80;;;;;;5063402;28;20618;-62
2022/06/28 12:19:38;;;;;;;0.10;0.10;;;43.10;35.50;;;;;;5081593;28;20539;-63
2022/06/28 12:22:05;;;;;;;1.80;1.10;;;44.20;34.20;;;;;;5082161;28;20589;-63
2022/06/28 12:24:52;;;;;;;0.20;0.20;;;45.10;33.20;;;;;;5081672;28;20204;-62
2022/06/28 12:27:27;;;;;;;0.90;0.50;;;45.40;33.00;;;;;;5080571;28;20316;-62
2022/06/28 12:29:57;;;;;;;0.10;0.10;;;45.70;34.10;;;;;;5081440;28;20319;-64
2022/06/28 12:32:23;;;;;;;1.35;1.35;;;44.70;33.50;;;;;;5081209;28;20273;-61
2022/06/28 12:35:00;;;;;;;0.68;0.52;;;43.10;35.40;;;;;;5081416;28;20198;-61
2022/06/28 12:37:27;;;;;;;0.00;0.00;;;41.40;36.60;;;;;;5081691;28;20232;-61
2022/06/28 12:39:53;;;;;;;1.27;1.27;;;39.50;38.50;;;;;;5080746;28;20193;-63
2022/06/28 12:42:19;;;;;;;0.08;0.08;;;37.80;39.60;;;;;;5081542;28;20224;-61
2022/06/28 12:44:45;;;;;;;0.00;0.00;;;36.40;41.20;;;;;;5082144;28;20244;-63
2022/06/28 12:47:11;;;;;;;0.60;0.52;;;37.30;41.90;;;;;;5081175;28;20192;-65
2022/06/28 12:49:37;;;;;;;0.80;0.52;;;39.20;38.40;;;;;;5081346;28;20556;-61
2022/06/28 12:52:04;;;;;;;2.22;1.95;;;41.10;36.30;;;;;;5081771;28;20504;-60
2022/06/28 12:54:30;;;;;;;0.45;0.45;;;42.10;34.20;;;;;;5080824;28;20199;-63
2022/06/28 12:56:56;;;;;;;0.10;0.10;;;42.30;34.10;;;;;;5081558;28;20650;-63
2022/06/28 12:59:22;;;;;;;0.75;0.75;;;43.80;34.30;;;;;;5062260;28;20275;-62